createdAt,value
2018-10-05T00:02:16.244Z,7.77
2018-10-05T00:04:45.915Z,8.47
2018-10-05T00:07:15.720Z,8.73
2018-10-05T00:09:45.473Z,8.87
2018-10-05T00:12:15.159Z,8.83
2018-10-05T00:14:44.807Z,9.03
2018-10-05T00:17:14.471Z,7.00
2018-10-05T00:19:44.127Z,7.47
2018-10-05T00:22:13.857Z,8.50
2018-10-05T00:24:43.463Z,8.50
2018-10-05T00:27:13.102Z,8.13
2018-10-05T00:29:42.723Z,6.93
2018-10-05T00:32:12.387Z,7.60
2018-10-05T00:34:42.004Z,9.37
2018-10-05T00:37:11.675Z,8.50
2018-10-05T00:39:41.319Z,7.87
2018-10-05T00:42:11.002Z,8.10
2018-10-05T00:44:40.654Z,8.57
2018-10-05T00:47:10.367Z,8.20
2018-10-05T00:49:40.028Z,8.63
2018-10-05T00:52:09.715Z,8.50
2018-10-05T00:54:39.354Z,8.13
2018-10-05T00:57:08.996Z,8.10
2018-10-05T00:59:38.798Z,7.70
2018-10-05T01:02:08.544Z,8.03
2018-10-05T01:04:38.289Z,7.70
2018-10-05T01:07:07.975Z,8.23
2018-10-05T01:09:37.579Z,8.50
2018-10-05T01:12:07.400Z,6.80
2018-10-05T01:14:37.006Z,7.57
2018-10-05T01:17:06.748Z,8.27
2018-10-05T01:19:37.134Z,7.27
2018-10-05T01:22:06.938Z,8.57
2018-10-05T01:24:36.580Z,7.97
2018-10-05T01:27:06.248Z,7.83
2018-10-05T01:29:35.934Z,8.40
2018-10-05T01:32:05.616Z,8.20
2018-10-05T01:34:35.290Z,8.03
2018-10-05T01:37:04.753Z,8.73
2018-10-05T01:39:34.170Z,7.93
2018-10-05T01:42:03.624Z,8.33
2018-10-05T01:44:33.057Z,8.17
2018-10-05T01:47:02.634Z,7.60
2018-10-05T01:49:32.074Z,9.07
2018-10-05T01:52:01.545Z,8.37
2018-10-05T01:54:30.955Z,7.77
2018-10-05T01:57:00.423Z,7.97
2018-10-05T01:59:29.844Z,8.30
2018-10-05T02:01:59.272Z,7.30
2018-10-05T02:04:28.674Z,8.73
2018-10-05T02:06:58.256Z,8.23
2018-10-05T02:09:27.717Z,8.20
2018-10-05T02:11:57.099Z,7.53
2018-10-05T02:14:26.672Z,8.03
2018-10-05T02:16:56.197Z,8.30
2018-10-05T02:19:25.620Z,7.40
2018-10-05T02:21:55.202Z,7.60
2018-10-05T02:24:24.604Z,8.10
2018-10-05T02:26:54.032Z,8.70
2018-10-05T02:29:23.449Z,8.17
2018-10-05T02:31:53.169Z,7.80
2018-10-05T02:34:22.564Z,9.40
2018-10-05T02:36:52.026Z,8.87
2018-10-05T02:39:21.408Z,7.50
2018-10-05T02:41:50.869Z,7.53
2018-10-05T02:44:20.216Z,8.07
2018-10-05T02:46:49.666Z,8.73
2018-10-05T02:49:19.076Z,9.10
2018-10-05T02:51:48.643Z,8.50
2018-10-05T02:54:18.031Z,8.47
2018-10-05T02:56:47.420Z,9.07
2018-10-05T02:59:16.959Z,8.17
2018-10-05T03:02:03.258Z,8.30
2018-10-05T03:04:32.960Z,8.43
2018-10-05T03:07:02.433Z,9.20
2018-10-05T03:09:31.838Z,9.23
2018-10-05T03:12:01.344Z,7.77
2018-10-05T03:14:30.742Z,7.57
2018-10-05T03:17:00.173Z,7.80
2018-10-05T03:19:29.620Z,8.10
2018-10-05T03:21:59.019Z,7.43
2018-10-05T03:24:28.424Z,7.73
2018-10-05T03:26:57.839Z,8.87
2018-10-05T03:29:27.586Z,7.57
2018-10-05T03:31:57.026Z,8.37
2018-10-05T03:34:26.482Z,8.77
2018-10-05T03:36:55.886Z,9.13
2018-10-05T03:39:25.331Z,9.00
2018-10-05T03:41:54.760Z,8.87
2018-10-05T03:44:24.193Z,9.03
2018-10-05T03:46:53.623Z,9.53
2018-10-05T03:49:23.084Z,10.00
2018-10-05T03:51:52.579Z,8.90
2018-10-05T03:54:22.054Z,8.33
2018-10-05T03:56:51.539Z,9.30
2018-10-05T03:59:20.969Z,8.97
2018-10-05T04:01:50.415Z,8.70
2018-10-05T04:04:19.857Z,9.13
2018-10-05T04:06:49.320Z,9.80
2018-10-05T04:09:18.840Z,9.47
2018-10-05T04:11:48.391Z,9.43
2018-10-05T04:14:17.948Z,9.70
2018-10-05T04:16:47.499Z,8.80
2018-10-05T04:19:16.996Z,9.00
2018-10-05T04:21:46.426Z,10.27
2018-10-05T04:24:15.848Z,9.93
2018-10-05T04:26:45.275Z,8.50
2018-10-05T04:29:14.868Z,8.70
2018-10-05T04:31:44.432Z,9.70
2018-10-05T04:34:13.869Z,8.17
2018-10-05T04:36:43.293Z,8.63
2018-10-05T04:39:13.772Z,8.47
2018-10-05T04:41:43.209Z,8.90
2018-10-05T04:44:12.611Z,9.87
2018-10-05T04:46:42.015Z,9.60
2018-10-05T04:49:11.470Z,8.27
2018-10-05T04:51:40.891Z,8.57
2018-10-05T04:54:10.302Z,8.93
2018-10-05T04:56:39.777Z,9.20
2018-10-05T04:59:09.168Z,8.40
2018-10-05T05:01:38.552Z,7.77
2018-10-05T05:04:07.988Z,8.10
2018-10-05T05:06:37.400Z,8.27
2018-10-05T05:09:08.157Z,8.80
2018-10-05T05:11:37.712Z,8.23
2018-10-05T05:14:07.092Z,7.90
2018-10-05T05:16:36.488Z,8.23
2018-10-05T05:19:06.411Z,8.97
2018-10-05T05:21:35.823Z,8.40
2018-10-05T05:24:05.234Z,7.10
2018-10-05T05:26:34.663Z,8.30
2018-10-05T05:29:04.092Z,8.10
2018-10-05T05:31:33.529Z,8.43
2018-10-05T05:34:03.221Z,8.87
2018-10-05T05:36:32.691Z,7.93
2018-10-05T05:39:02.223Z,8.03
2018-10-05T05:41:31.692Z,9.30
2018-10-05T05:44:01.107Z,8.27
2018-10-05T05:46:30.572Z,9.10
2018-10-05T05:49:00.046Z,8.20
2018-10-05T05:51:29.516Z,8.20
2018-10-05T05:53:58.967Z,9.30
2018-10-05T05:56:28.467Z,8.37
2018-10-05T05:58:57.904Z,9.80
2018-10-05T06:01:27.329Z,8.57
2018-10-05T06:03:56.882Z,7.07
2018-10-05T06:06:26.309Z,8.20
2018-10-05T06:08:55.816Z,8.57
2018-10-05T06:11:25.275Z,9.37
2018-10-05T06:13:54.680Z,7.90
2018-10-05T06:16:24.187Z,7.53
2018-10-05T06:18:53.609Z,7.17
2018-10-05T06:21:23.078Z,7.80
2018-10-05T06:23:52.425Z,7.50
2018-10-05T06:26:21.846Z,7.20
2018-10-05T06:28:51.259Z,8.20
2018-10-05T06:31:20.671Z,7.70
2018-10-05T06:33:50.300Z,7.17
2018-10-05T06:36:19.680Z,6.87
2018-10-05T06:38:49.151Z,7.20
2018-10-05T06:41:18.710Z,6.70
2018-10-05T06:43:48.097Z,6.50
2018-10-05T06:46:17.481Z,5.57
2018-10-05T06:48:46.895Z,5.70
2018-10-05T06:51:16.297Z,5.20
2018-10-05T06:53:45.806Z,5.40
2018-10-05T06:56:15.280Z,6.03
2018-10-05T06:58:44.680Z,5.50
2018-10-05T07:01:14.247Z,5.20
2018-10-05T07:03:43.597Z,4.70
2018-10-05T07:06:13.004Z,5.40
2018-10-05T07:08:42.428Z,5.97
2018-10-05T07:11:11.910Z,4.70
2018-10-05T07:13:41.360Z,5.20
2018-10-05T07:16:10.771Z,3.97
2018-10-05T07:18:40.378Z,4.23
2018-10-05T07:21:09.877Z,4.53
2018-10-05T07:23:39.338Z,4.03
2018-10-05T07:26:08.758Z,4.00
2018-10-05T07:28:38.193Z,4.13
2018-10-05T07:31:08.005Z,4.17
2018-10-05T07:33:37.584Z,3.80
2018-10-05T07:36:07.173Z,4.93
2018-10-05T07:38:36.684Z,4.40
2018-10-05T07:41:06.447Z,4.30
2018-10-05T07:43:35.892Z,3.60
2018-10-05T07:46:05.361Z,3.43
2018-10-05T07:48:34.928Z,3.20
2018-10-05T07:51:04.330Z,4.10
2018-10-05T07:53:33.754Z,4.13
2018-10-05T07:56:03.347Z,4.33
2018-10-05T07:58:32.761Z,3.90
2018-10-05T08:01:02.174Z,4.20
2018-10-05T08:03:31.603Z,4.03
2018-10-05T08:06:01.057Z,3.67
2018-10-05T08:08:30.479Z,3.00
2018-10-05T08:10:59.879Z,3.80
2018-10-05T08:13:29.288Z,3.23
2018-10-05T08:15:58.786Z,3.17
2018-10-05T08:18:28.202Z,3.20
2018-10-05T08:20:57.603Z,3.30
2018-10-05T08:23:27.046Z,3.20
2018-10-05T08:25:56.580Z,3.90
2018-10-05T08:28:25.987Z,3.27
2018-10-05T08:30:55.404Z,3.40
2018-10-05T08:33:24.996Z,3.77
2018-10-05T08:35:54.517Z,3.67
2018-10-05T08:38:23.992Z,3.70
2018-10-05T08:40:53.446Z,3.67
2018-10-05T08:43:22.928Z,3.30
2018-10-05T08:45:52.418Z,3.10
2018-10-05T08:48:21.747Z,3.57
2018-10-05T08:50:51.190Z,2.67
2018-10-05T08:53:20.586Z,3.30
2018-10-05T08:55:50.273Z,3.70
2018-10-05T08:58:19.673Z,2.90
2018-10-05T09:00:49.076Z,3.43
2018-10-05T09:03:18.504Z,2.20
2018-10-05T09:05:47.985Z,3.30
2018-10-05T09:08:17.521Z,2.57
2018-10-05T09:10:46.935Z,2.77
2018-10-05T09:13:16.313Z,2.10
2018-10-05T09:15:45.721Z,3.03
2018-10-05T09:18:15.318Z,2.90
2018-10-05T09:20:44.627Z,2.83
2018-10-05T09:23:14.011Z,3.00
2018-10-05T09:25:43.437Z,1.83
2018-10-05T09:28:12.820Z,2.00
2018-10-05T09:30:42.231Z,2.00
2018-10-05T09:33:11.796Z,2.70
2018-10-05T09:35:41.181Z,2.50
2018-10-05T09:38:10.567Z,3.97
2018-10-05T09:40:40.016Z,3.20
2018-10-05T09:43:09.418Z,3.03
2018-10-05T09:45:38.893Z,2.40
2018-10-05T09:48:08.587Z,2.47
2018-10-05T09:50:37.977Z,2.50
2018-10-05T09:53:07.396Z,2.13
2018-10-05T09:55:36.981Z,3.23
2018-10-05T09:58:06.408Z,2.00
2018-10-05T10:00:41.475Z,2.43
2018-10-05T10:03:16.072Z,2.20
2018-10-05T10:05:45.600Z,2.30
2018-10-05T10:08:15.195Z,2.23
2018-10-05T10:10:44.605Z,2.30
2018-10-05T10:13:14.020Z,2.93
2018-10-05T10:15:43.409Z,3.13
2018-10-05T10:18:12.863Z,2.13
2018-10-05T10:20:42.328Z,3.37
2018-10-05T10:23:11.716Z,3.37
2018-10-05T10:25:41.233Z,3.07
2018-10-05T10:28:10.705Z,3.30
2018-10-05T10:30:40.102Z,3.50
2018-10-05T10:33:09.509Z,2.20
2018-10-05T10:35:38.956Z,3.20
2018-10-05T10:38:08.341Z,2.73
2018-10-05T10:40:37.739Z,2.97
2018-10-05T10:43:07.528Z,2.90
2018-10-05T10:45:36.997Z,3.30
2018-10-05T10:48:06.796Z,2.57
2018-10-05T10:50:36.169Z,3.43
2018-10-05T10:53:05.601Z,2.80
2018-10-05T10:55:34.930Z,3.20
2018-10-05T10:58:04.440Z,3.30
2018-10-05T11:00:33.972Z,2.77
2018-10-05T11:03:03.733Z,3.60
2018-10-05T11:05:33.151Z,2.27
2018-10-05T11:08:03.548Z,2.80
2018-10-05T11:10:32.973Z,3.50
2018-10-05T11:13:02.431Z,2.87
2018-10-05T11:15:31.819Z,3.30
2018-10-05T11:18:01.234Z,3.60
2018-10-05T11:20:30.840Z,2.97
2018-10-05T11:23:00.286Z,3.70
2018-10-05T11:25:29.835Z,3.47
2018-10-05T11:27:59.396Z,3.60
2018-10-05T11:30:28.848Z,4.20
2018-10-05T11:32:58.308Z,4.53
2018-10-05T11:35:27.909Z,4.50
2018-10-05T11:37:57.388Z,4.80
2018-10-05T11:40:26.911Z,4.93
2018-10-05T11:42:56.362Z,4.80
2018-10-05T11:45:25.787Z,5.00
2018-10-05T11:47:55.316Z,5.57
2018-10-05T11:50:24.900Z,7.63
2018-10-05T11:52:54.392Z,4.80
2018-10-05T11:55:23.851Z,5.47
2018-10-05T11:57:53.316Z,4.67
2018-10-05T12:00:22.713Z,4.50
2018-10-05T12:02:52.124Z,5.33
2018-10-05T12:05:21.556Z,4.03
2018-10-05T12:07:50.925Z,4.90
2018-10-05T12:10:20.314Z,5.23
2018-10-05T12:12:49.834Z,4.50
2018-10-05T12:15:19.244Z,4.23
2018-10-05T12:17:48.723Z,4.67
2018-10-05T12:20:18.151Z,4.20
2018-10-05T12:22:47.664Z,3.87
2018-10-05T12:25:17.054Z,4.83
2018-10-05T12:27:46.682Z,4.23
2018-10-05T12:30:16.206Z,4.30
2018-10-05T12:32:45.709Z,4.20
2018-10-05T12:35:15.167Z,3.87
2018-10-05T12:37:44.576Z,4.73
2018-10-05T12:40:13.984Z,4.40
2018-10-05T12:42:43.384Z,4.43
2018-10-05T12:45:12.759Z,3.77
2018-10-05T12:47:42.181Z,3.77
2018-10-05T12:50:11.647Z,4.00
2018-10-05T12:52:41.084Z,4.33
2018-10-05T12:55:10.492Z,4.13
2018-10-05T12:57:39.955Z,3.87
2018-10-05T13:00:09.433Z,3.80
2018-10-05T13:02:38.892Z,3.33
2018-10-05T13:05:08.656Z,4.10
2018-10-05T13:07:38.094Z,5.03
2018-10-05T13:10:07.548Z,3.30
2018-10-05T13:12:36.968Z,3.83
2018-10-05T13:15:06.529Z,3.10
2018-10-05T13:17:35.956Z,3.13
2018-10-05T13:20:05.411Z,3.77
2018-10-05T13:22:34.792Z,3.10
2018-10-05T13:25:04.172Z,3.80
2018-10-05T13:27:33.708Z,3.53
2018-10-05T13:30:03.156Z,3.90
2018-10-05T13:32:32.560Z,3.93
2018-10-05T13:35:01.980Z,3.50
2018-10-05T13:37:31.487Z,3.97
2018-10-05T13:40:00.824Z,3.03
2018-10-05T13:42:30.296Z,3.53
2018-10-05T13:44:59.692Z,3.90
2018-10-05T13:47:29.099Z,3.80
2018-10-05T13:49:58.534Z,3.80
2018-10-05T13:52:27.903Z,3.30
2018-10-05T13:54:57.460Z,3.33
2018-10-05T13:57:26.968Z,3.10
2018-10-05T13:59:56.363Z,3.77
2018-10-05T14:02:25.757Z,4.40
2018-10-05T14:04:55.410Z,3.60
2018-10-05T14:07:24.815Z,3.23
2018-10-05T14:09:54.236Z,3.90
2018-10-05T14:12:23.706Z,3.50
2018-10-05T14:14:53.260Z,4.23
2018-10-05T14:17:22.790Z,3.67
2018-10-05T14:19:52.368Z,3.30
2018-10-05T14:22:21.801Z,3.83
2018-10-05T14:24:51.200Z,3.17
2018-10-05T14:27:20.708Z,3.80
2018-10-05T14:29:50.079Z,2.97
2018-10-05T14:32:19.552Z,3.80
2018-10-05T14:34:50.721Z,3.40
2018-10-05T14:37:20.159Z,3.53
2018-10-05T14:39:49.545Z,3.10
2018-10-05T14:42:18.952Z,3.57
2018-10-05T14:44:48.370Z,3.13
2018-10-05T14:47:17.760Z,3.53
2018-10-05T14:49:47.216Z,3.27
2018-10-05T14:52:20.701Z,3.87
2018-10-05T14:54:50.103Z,3.40
2018-10-05T14:57:19.931Z,4.17
2018-10-05T14:59:49.371Z,4.60
2018-10-05T15:02:18.780Z,4.17
2018-10-05T15:04:48.816Z,2.90
2018-10-05T15:07:18.223Z,3.27
2018-10-05T15:09:47.848Z,4.23
2018-10-05T15:12:17.222Z,5.17
2018-10-05T15:14:46.587Z,4.40
2018-10-05T15:17:15.999Z,4.60
2018-10-05T15:19:45.402Z,4.40
2018-10-05T15:22:14.931Z,4.13
2018-10-05T15:24:44.563Z,4.13
2018-10-05T15:27:14.010Z,4.63
2018-10-05T15:29:43.396Z,5.10
2018-10-05T15:32:12.827Z,3.97
2018-10-05T15:34:42.331Z,5.43
2018-10-05T15:37:11.779Z,4.13
2018-10-05T15:39:41.243Z,4.40
2018-10-05T15:42:10.667Z,4.00
2018-10-05T15:44:40.170Z,4.07
2018-10-05T15:47:13.241Z,3.97
2018-10-05T15:49:43.055Z,4.47
2018-10-05T15:52:12.516Z,4.93
2018-10-05T15:54:42.084Z,4.10
2018-10-05T15:57:11.516Z,4.20
2018-10-05T15:59:40.919Z,4.73
2018-10-05T16:02:10.327Z,5.30
2018-10-05T16:04:39.744Z,4.50
2018-10-05T16:07:09.139Z,4.87
2018-10-05T16:09:38.542Z,4.07
2018-10-05T16:12:07.979Z,3.80
2018-10-05T16:14:37.473Z,4.73
2018-10-05T16:17:07.025Z,5.20
2018-10-05T16:19:36.455Z,3.93
2018-10-05T16:22:05.892Z,4.23
2018-10-05T16:24:38.411Z,4.23
2018-10-05T16:27:08.016Z,4.33
2018-10-05T16:29:37.753Z,4.00
2018-10-05T16:32:07.784Z,4.23
2018-10-05T16:34:37.201Z,5.47
2018-10-05T16:37:06.881Z,4.00
2018-10-05T16:39:36.444Z,4.93
2018-10-05T16:42:05.939Z,3.80
2018-10-05T16:44:35.440Z,4.23
2018-10-05T16:47:04.851Z,4.17
2018-10-05T16:49:34.270Z,4.27
2018-10-05T16:52:03.676Z,3.63
2018-10-05T16:54:33.196Z,4.90
2018-10-05T16:57:02.988Z,4.20
2018-10-05T16:59:33.084Z,4.77
2018-10-05T17:02:02.500Z,3.93
2018-10-05T17:04:31.885Z,4.00
2018-10-05T17:07:01.264Z,5.43
2018-10-05T17:09:30.788Z,3.97
2018-10-05T17:12:00.292Z,5.10
2018-10-05T17:19:23.936Z,5.50
2018-10-05T17:21:53.372Z,5.70
2018-10-05T17:24:22.808Z,6.40
2018-10-05T17:26:52.247Z,5.13
2018-10-05T17:29:21.827Z,4.70
2018-10-05T17:31:51.157Z,5.30
2018-10-05T17:34:20.568Z,5.13
2018-10-05T17:36:50.012Z,5.40
2018-10-05T17:39:19.416Z,6.17
2018-10-05T17:41:48.976Z,5.80
2018-10-05T17:44:18.381Z,5.90
2018-10-05T17:46:47.808Z,4.67
2018-10-05T17:49:17.230Z,5.80
2018-10-05T17:51:46.640Z,6.00
2018-10-05T17:54:16.050Z,5.40
2018-10-05T17:56:45.448Z,5.80
2018-10-05T17:59:14.853Z,4.90
2018-10-05T18:01:44.283Z,5.70
2018-10-05T18:04:13.732Z,4.60
2018-10-05T18:06:43.177Z,5.17
2018-10-05T18:09:12.568Z,5.50
2018-10-05T18:11:42.112Z,5.57
2018-10-05T18:14:11.533Z,6.20
2018-10-05T18:16:40.996Z,6.40
2018-10-05T18:19:10.428Z,4.77
2018-10-05T18:21:39.828Z,6.20
2018-10-05T18:24:09.229Z,5.50
2018-10-05T18:26:38.696Z,6.30
2018-10-05T18:29:08.112Z,6.30
2018-10-05T18:31:37.512Z,5.77
2018-10-05T18:34:07.196Z,5.13
2018-10-05T18:36:36.670Z,6.87
2018-10-05T18:39:09.380Z,6.30
2018-10-05T18:41:38.795Z,7.83
2018-10-05T18:44:08.252Z,7.90
2018-10-05T18:46:37.693Z,7.57
2018-10-05T18:49:07.099Z,7.73
2018-10-05T18:51:36.513Z,8.10
2018-10-05T18:54:05.964Z,8.97
2018-10-05T18:56:52.434Z,7.40
2018-10-05T18:59:21.918Z,7.83
2018-10-05T19:01:51.337Z,8.40
2018-10-05T19:04:20.742Z,7.80
2018-10-05T19:06:50.300Z,7.73
2018-10-05T19:09:19.676Z,7.17
2018-10-05T19:11:49.166Z,7.43
2018-10-05T19:14:18.585Z,8.90
2018-10-05T19:16:47.991Z,9.23
2018-10-05T19:19:17.391Z,9.93
2018-10-05T19:21:46.832Z,7.77
2018-10-05T19:24:16.246Z,9.00
2018-10-05T19:26:45.728Z,8.33
2018-10-05T19:29:15.164Z,7.90
2018-10-05T19:31:44.649Z,8.00
2018-10-05T19:34:14.040Z,7.83
2018-10-05T19:36:43.470Z,8.20
2018-10-05T19:39:13.053Z,8.90
2018-10-05T19:41:42.532Z,8.53
2018-10-05T19:44:12.264Z,8.27
2018-10-05T19:46:41.894Z,7.70
2018-10-05T19:49:11.299Z,8.10
2018-10-05T19:51:40.804Z,8.20
2018-10-05T19:54:10.309Z,8.00
2018-10-05T19:56:39.715Z,8.13
2018-10-05T19:59:09.260Z,7.43
2018-10-05T20:01:38.693Z,7.87
2018-10-05T20:04:08.127Z,6.87
2018-10-05T20:06:37.593Z,8.50
2018-10-05T20:09:08.547Z,7.73
2018-10-05T20:11:37.980Z,9.10
2018-10-05T20:14:07.378Z,7.60
2018-10-05T20:16:36.805Z,6.50
2018-10-05T20:19:06.450Z,7.30
2018-10-05T20:21:35.872Z,8.00
2018-10-05T20:24:05.484Z,7.87
2018-10-05T20:26:34.965Z,7.73
2018-10-05T20:29:04.372Z,8.63
2018-10-05T20:31:33.781Z,8.87
2018-10-05T20:34:03.718Z,9.03
2018-10-05T20:36:33.357Z,8.20
2018-10-05T20:39:02.545Z,9.43
2018-10-05T20:41:32.111Z,7.23
2018-10-05T20:44:01.599Z,6.77
2018-10-05T20:46:31.009Z,7.73
2018-10-05T20:49:00.723Z,8.40
2018-10-05T20:51:30.185Z,7.70
2018-10-05T20:53:59.576Z,9.50
2018-10-05T20:56:29.256Z,7.00
2018-10-05T20:58:58.663Z,7.47
2018-10-05T21:01:28.118Z,8.23
2018-10-05T21:03:57.549Z,7.90
2018-10-05T21:06:26.953Z,7.23
2018-10-05T21:08:56.439Z,8.43
2018-10-05T21:11:25.863Z,6.90
2018-10-05T21:13:55.232Z,7.33
2018-10-05T21:16:24.739Z,8.13
2018-10-05T21:18:54.172Z,8.03
2018-10-05T21:21:23.636Z,7.93
2018-10-05T21:23:53.012Z,8.77
2018-10-05T21:26:22.589Z,8.37
2018-10-05T21:28:51.988Z,8.47
2018-10-05T21:31:21.400Z,8.73
2018-10-05T21:33:50.817Z,9.00
2018-10-05T21:36:20.202Z,15.97
2018-10-05T21:38:49.692Z,9.70
2018-10-05T21:41:19.039Z,8.10
2018-10-05T21:43:48.423Z,8.97
2018-10-05T21:46:17.845Z,9.73
2018-10-05T21:48:47.261Z,8.10
2018-10-05T21:51:16.722Z,7.30
2018-10-05T21:53:46.068Z,9.63
2018-10-05T21:56:15.494Z,8.73
2018-10-05T21:58:44.892Z,9.03
2018-10-05T22:01:14.263Z,9.00
2018-10-05T22:03:46.624Z,8.03
2018-10-05T22:06:17.956Z,8.97
2018-10-05T22:08:47.464Z,9.67
2018-10-05T22:11:17.032Z,8.63
2018-10-05T22:13:46.456Z,9.33
2018-10-05T22:16:15.878Z,9.03
2018-10-05T22:18:45.306Z,8.70
2018-10-05T22:21:14.967Z,8.30
2018-10-05T22:23:44.399Z,8.40
2018-10-05T22:26:13.780Z,8.87
2018-10-05T22:28:43.163Z,7.70
2018-10-05T22:31:12.594Z,10.00
2018-10-05T22:33:42.038Z,8.50
2018-10-05T22:36:17.779Z,8.40
2018-10-05T22:38:47.167Z,8.93
2018-10-05T22:41:16.606Z,8.60
2018-10-05T22:43:46.013Z,9.23
2018-10-05T22:46:15.420Z,7.47
2018-10-05T22:48:44.919Z,9.23
2018-10-05T22:51:14.371Z,8.17
2018-10-05T22:53:43.792Z,9.63
2018-10-05T22:56:13.215Z,9.03
2018-10-05T22:58:42.879Z,8.43
2018-10-05T23:01:12.263Z,8.73
2018-10-05T23:03:41.747Z,8.53
2018-10-05T23:06:11.171Z,9.03
2018-10-05T23:08:40.560Z,7.87
2018-10-05T23:11:09.943Z,8.00
2018-10-05T23:13:39.516Z,9.63
2018-10-05T23:16:09.249Z,9.50
2018-10-05T23:18:38.894Z,9.33
2018-10-05T23:21:08.316Z,8.20
2018-10-05T23:23:37.719Z,8.23
2018-10-05T23:26:07.348Z,8.90
2018-10-05T23:28:36.757Z,10.53
2018-10-05T23:31:06.262Z,9.20
2018-10-05T23:33:35.667Z,9.70
2018-10-05T23:36:05.148Z,8.53
2018-10-05T23:38:34.568Z,8.77
2018-10-05T23:41:03.951Z,8.93
2018-10-05T23:43:33.465Z,8.40
2018-10-05T23:46:03.110Z,8.77
2018-10-05T23:48:32.867Z,9.67
2018-10-05T23:51:02.371Z,8.40
2018-10-05T23:53:31.747Z,9.93
2018-10-05T23:56:01.142Z,9.53
2018-10-05T23:58:30.553Z,8.60
